sensor_id;sensor_type;location;lat;lon;timestamp;noise_LAeq;noise_LA_min;noise_LA_max;noise_LA01;noise_LA95
45964;Laerm;31671;48.092;11.842;2024-03-23T00:54:29;28.92;27.51;31.50;;
45964;Laerm;31671;48.092;11.842;2024-03-23T00:56:55;32.41;27.84;43.93;;
45964;Laerm;31671;48.092;11.842;2024-03-23T00:59:21;29.06;27.58;31.29;;
45964;Laerm;31671;48.092;11.842;2024-03-23T01:01:46;28.93;27.66;30.10;;
45964;Laerm;31671;48.092;11.842;2024-03-23T01:04:12;29.20;27.64;33.95;;
45964;Laerm;31671;48.092;11.842;2024-03-23T01:06:38;28.94;27.60;30.84;;
45964;Laerm;31671;48.092;11.842;2024-03-23T01:09:04;28.98;27.52;30.18;;
45964;Laerm;31671;48.092;11.842;2024-03-23T01:11:29;29.00;27.81;33.22;;
45964;Laerm;31671;48.092;11.842;2024-03-23T01:13:55;29.34;27.86;34.36;;
45964;Laerm;31671;48.092;11.842;2024-03-23T01:16:21;29.07;27.73;30.44;;
45964;Laerm;31671;48.092;11.842;2024-03-23T01:18:46;29.07;27.45;30.43;;
45964;Laerm;31671;48.092;11.842;2024-03-23T01:21:12;29.08;27.59;31.98;;
45964;Laerm;31671;48.092;11.842;2024-03-23T01:23:38;29.74;27.79;45.32;;
45964;Laerm;31671;48.092;11.842;2024-03-23T01:26:03;29.17;27.84;38.93;;
45964;Laerm;31671;48.092;11.842;2024-03-23T01:28:29;29.19;27.92;40.43;;
45964;Laerm;31671;48.092;11.842;2024-03-23T01:30:55;29.15;27.68;31.94;;
45964;Laerm;31671;48.092;11.842;2024-03-23T01:33:20;29.07;27.78;31.09;;
45964;Laerm;31671;48.092;11.842;2024-03-23T01:35:46;29.18;27.89;31.09;;
45964;Laerm;31671;48.092;11.842;2024-03-23T01:38:12;29.17;27.63;31.58;;
45964;Laerm;31671;48.092;11.842;2024-03-23T01:40:38;29.14;27.76;31.02;;
45964;Laerm;31671;48.092;11.842;2024-03-23T01:43:04;29.15;27.94;31.01;;
45964;Laerm;31671;48.092;11.842;2024-03-23T01:45:33;29.61;27.75;37.14;;
45964;Laerm;31671;48.092;11.842;2024-03-23T01:47:59;29.44;27.87;33.58;;
45964;Laerm;31671;48.092;11.842;2024-03-23T01:50:24;29.21;27.95;30.41;;
45964;Laerm;31671;48.092;11.842;2024-03-23T01:52:50;29.17;27.65;36.68;;
45964;Laerm;31671;48.092;11.842;2024-03-23T01:55:16;29.21;27.57;38.05;;
45964;Laerm;31671;48.092;11.842;2024-03-23T01:57:42;29.14;27.90;31.45;;
45964;Laerm;31671;48.092;11.842;2024-03-23T02:00:08;29.40;27.97;37.10;;
45964;Laerm;31671;48.092;11.842;2024-03-23T02:02:43;29.14;27.79;33.89;;
45964;Laerm;31671;48.092;11.842;2024-03-23T02:05:09;31.05;27.83;36.96;;
45964;Laerm;31671;48.092;11.842;2024-03-23T02:07:34;29.16;27.77;33.06;;
45964;Laerm;31671;48.092;11.842;2024-03-23T02:10:00;30.75;27.95;49.80;;
45964;Laerm;31671;48.092;11.842;2024-03-23T02:12:26;30.14;27.75;46.95;;
45964;Laerm;31671;48.092;11.842;2024-03-23T02:14:52;29.43;27.86;42.67;;
45964;Laerm;31671;48.092;11.842;2024-03-23T02:17:18;33.91;28.05;51.09;;
45964;Laerm;31671;48.092;11.842;2024-03-23T02:19:43;29.26;27.97;35.46;;
45964;Laerm;31671;48.092;11.842;2024-03-23T02:22:09;29.74;27.94;43.12;;
45964;Laerm;31671;48.092;11.842;2024-03-23T02:24:35;30.34;27.83;45.55;;
45964;Laerm;31671;48.092;11.842;2024-03-23T02:27:01;29.17;27.94;33.28;;
45964;Laerm;31671;48.092;11.842;2024-03-23T02:29:27;29.15;27.91;31.26;;
45964;Laerm;31671;48.092;11.842;2024-03-23T02:31:53;29.21;27.96;31.06;;
45964;Laerm;31671;48.092;11.842;2024-03-23T02:34:19;31.19;27.66;41.40;;
45964;Laerm;31671;48.092;11.842;2024-03-23T02:36:44;31.24;27.66;42.16;;
45964;Laerm;31671;48.092;11.842;2024-03-23T02:39:10;29.74;27.83;37.61;;
45964;Laerm;31671;48.092;11.842;2024-03-23T02:41:36;29.16;27.81;36.32;;
45964;Laerm;31671;48.092;11.842;2024-03-23T02:44:02;31.01;27.44;38.28;;
45964;Laerm;31671;48.092;11.842;2024-03-23T02:46:28;29.27;27.86;41.04;;
45964;Laerm;31671;48.092;11.842;2024-03-23T02:48:53;29.13;27.85;34.62;;
45964;Laerm;31671;48.092;11.842;2024-03-23T02:51:19;30.09;27.71;36.43;;
45964;Laerm;31671;48.092;11.842;2024-03-23T02:53:45;29.20;27.53;39.55;;
45964;Laerm;31671;48.092;11.842;2024-03-23T02:56:10;30.45;27.73;37.06;;
45964;Laerm;31671;48.092;11.842;2024-03-23T02:58:36;29.08;27.63;30.68;;
45964;Laerm;31671;48.092;11.842;2024-03-23T03:01:02;29.14;27.44;31.20;;
45964;Laerm;31671;48.092;11.842;2024-03-23T03:03:27;29.07;27.93;34.98;;
45964;Laerm;31671;48.092;11.842;2024-03-23T03:05:56;29.13;27.81;33.99;;
45964;Laerm;31671;48.092;11.842;2024-03-23T03:08:22;29.19;27.78;34.55;;
45964;Laerm;31671;48.092;11.842;2024-03-23T03:10:47;29.66;27.62;44.90;;
45964;Laerm;31671;48.092;11.842;2024-03-23T03:13:13;30.33;27.85;37.49;;
45964;Laerm;31671;48.092;11.842;2024-03-23T03:15:43;29.05;27.58;30.94;;
45964;Laerm;31671;48.092;11.842;2024-03-23T03:18:09;30.14;27.67;36.20;;
45964;Laerm;31671;48.092;11.842;2024-03-23T03:20:36;29.07;27.74;30.85;;
45964;Laerm;31671;48.092;11.842;2024-03-23T03:23:02;29.11;27.65;33.24;;
45964;Laerm;31671;48.092;11.842;2024-03-23T03:25:28;29.11;27.87;32.39;;
45964;Laerm;31671;48.092;11.842;2024-03-23T03:27:54;29.14;27.96;33.76;;
45964;Laerm;31671;48.092;11.842;2024-03-23T03:30:19;29.19;27.75;37.83;;
45964;Laerm;31671;48.092;11.842;2024-03-23T03:32:45;29.09;27.73;30.72;;
45964;Laerm;31671;48.092;11.842;2024-03-23T03:35:11;29.79;27.73;45.80;;
45964;Laerm;31671;48.092;11.842;2024-03-23T03:37:36;31.06;27.59;46.55;;
45964;Laerm;31671;48.092;11.842;2024-03-23T03:40:02;29.99;27.63;56.29;;
45964;Laerm;31671;48.092;11.842;2024-03-23T03:42:28;29.41;27.68;41.62;;
45964;Laerm;31671;48.092;11.842;2024-03-23T03:44:54;29.10;27.83;31.06;;
45964;Laerm;31671;48.092;11.842;2024-03-23T03:47:19;30.29;27.83;35.60;;
45964;Laerm;31671;48.092;11.842;2024-03-23T03:49:45;29.07;27.79;34.11;;
45964;Laerm;31671;48.092;11.842;2024-03-23T03:52:11;29.15;27.97;34.22;;
45964;Laerm;31671;48.092;11.842;2024-03-23T03:54:36;29.14;27.73;33.66;;
45964;Laerm;31671;48.092;11.842;2024-03-23T03:57:02;29.16;27.85;31.63;;
45964;Laerm;31671;48.092;11.842;2024-03-23T03:59:29;29.11;27.73;31.27;;
45964;Laerm;31671;48.092;11.842;2024-03-23T04:01:54;29.15;27.79;35.78;;
45964;Laerm;31671;48.092;11.842;2024-03-23T04:04:20;29.30;27.64;37.07;;
45964;Laerm;31671;48.092;11.842;2024-03-23T04:06:46;29.73;27.81;43.57;;
45964;Laerm;31671;48.092;11.842;2024-03-23T04:09:11;30.99;27.89;47.14;;
45964;Laerm;31671;48.092;11.842;2024-03-23T04:11:37;29.96;28.08;41.76;;
45964;Laerm;31671;48.092;11.842;2024-03-23T04:14:03;29.64;27.92;42.32;;
45964;Laerm;31671;48.092;11.842;2024-03-23T04:16:29;30.82;27.84;47.68;;
45964;Laerm;31671;48.092;11.842;2024-03-23T04:18:55;30.54;27.98;48.18;;
45964;Laerm;31671;48.092;11.842;2024-03-23T04:21:21;30.78;27.55;49.33;;
45964;Laerm;31671;48.092;11.842;2024-03-23T04:23:47;36.77;28.08;67.47;;
45964;Laerm;31671;48.092;11.842;2024-03-23T04:26:13;29.89;28.03;40.12;;
45964;Laerm;31671;48.092;11.842;2024-03-23T04:28:38;31.14;28.15;55.78;;
45964;Laerm;31671;48.092;11.842;2024-03-23T04:31:04;34.41;28.07;63.36;;
45964;Laerm;31671;48.092;11.842;2024-03-23T04:33:30;31.80;27.99;50.93;;
45964;Laerm;31671;48.092;11.842;2024-03-23T04:35:55;31.14;28.22;47.27;;
45964;Laerm;31671;48.092;11.842;2024-03-23T04:38:21;30.57;28.16;46.43;;
45964;Laerm;31671;48.092;11.842;2024-03-23T04:40:56;30.24;28.29;38.07;;
45964;Laerm;31671;48.092;11.842;2024-03-23T04:43:22;32.05;28.39;53.14;;
45964;Laerm;31671;48.092;11.842;2024-03-23T04:45:48;34.87;28.20;55.75;;
45964;Laerm;31671;48.092;11.842;2024-03-23T04:48:14;32.42;28.02;42.71;;
45964;Laerm;31671;48.092;11.842;2024-03-23T04:50:39;30.96;28.16;44.79;;
45964;Laerm;31671;48.092;11.842;2024-03-23T04:53:05;29.92;28.08;43.17;;
45964;Laerm;31671;48.092;11.842;2024-03-23T04:55:31;30.19;28.18;43.27;;
45964;Laerm;31671;48.092;11.842;2024-03-23T04:57:56;30.10;28.23;44.21;;
45964;Laerm;31671;48.092;11.842;2024-03-23T05:00:22;29.53;28.04;34.76;;
45964;Laerm;31671;48.092;11.842;2024-03-23T05:02:48;29.69;28.12;37.36;;
45964;Laerm;31671;48.092;11.842;2024-03-23T05:05:14;29.64;28.07;35.87;;
45964;Laerm;31671;48.092;11.842;2024-03-23T05:07:39;29.61;27.92;34.92;;
45964;Laerm;31671;48.092;11.842;2024-03-23T05:10:05;29.46;27.89;34.25;;
45964;Laerm;31671;48.092;11.842;2024-03-23T05:12:31;30.38;28.14;36.45;;
45964;Laerm;31671;48.092;11.842;2024-03-23T05:14:57;29.72;28.05;35.46;;
45964;Laerm;31671;48.092;11.842;2024-03-23T05:17:23;29.51;27.89;34.31;;
45964;Laerm;31671;48.092;11.842;2024-03-23T05:19:48;30.99;27.86;40.58;;
45964;Laerm;31671;48.092;11.842;2024-03-23T05:22:14;29.95;27.97;35.36;;
45964;Laerm;31671;48.092;11.842;2024-03-23T05:24:40;29.82;28.12;39.15;;
45964;Laerm;31671;48.092;11.842;2024-03-23T05:27:06;31.09;28.27;43.03;;
45964;Laerm;31671;48.092;11.842;2024-03-23T05:29:31;29.84;27.96;39.16;;
45964;Laerm;31671;48.092;11.842;2024-03-23T05:31:57;29.64;27.93;38.54;;
45964;Laerm;31671;48.092;11.842;2024-03-23T05:34:23;29.47;27.88;34.63;;
45964;Laerm;31671;48.092;11.842;2024-03-23T05:36:48;29.53;28.01;40.02;;
45964;Laerm;31671;48.092;11.842;2024-03-23T05:39:16;30.45;27.87;40.57;;
45964;Laerm;31671;48.092;11.842;2024-03-23T05:41:42;31.51;28.33;38.98;;
45964;Laerm;31671;48.092;11.842;2024-03-23T05:44:07;29.67;28.19;33.72;;
45964;Laerm;31671;48.092;11.842;2024-03-23T05:46:33;30.09;27.96;42.32;;
45964;Laerm;31671;48.092;11.842;2024-03-23T05:49:01;30.17;28.37;36.98;;
45964;Laerm;31671;48.092;11.842;2024-03-23T05:51:27;30.50;28.46;42.55;;
45964;Laerm;31671;48.092;11.842;2024-03-23T05:53:52;30.59;28.59;40.57;;
45964;Laerm;31671;48.092;11.842;2024-03-23T05:56:19;31.16;28.59;41.75;;
45964;Laerm;31671;48.092;11.842;2024-03-23T05:58:45;30.42;28.67;36.90;;
45964;Laerm;31671;48.092;11.842;2024-03-23T06:01:11;31.17;28.77;46.57;;
45964;Laerm;31671;48.092;11.842;2024-03-23T06:03:36;30.80;28.57;40.98;;
45964;Laerm;31671;48.092;11.842;2024-03-23T06:06:02;32.30;28.94;45.67;;
45964;Laerm;31671;48.092;11.842;2024-03-23T06:08:28;30.98;28.76;46.35;;
45964;Laerm;31671;48.092;11.842;2024-03-23T06:10:53;31.48;28.80;44.32;;
45964;Laerm;31671;48.092;11.842;2024-03-23T06:13:20;30.60;28.67;38.05;;
45964;Laerm;31671;48.092;11.842;2024-03-23T06:15:46;30.68;28.92;41.40;;
45964;Laerm;31671;48.092;11.842;2024-03-23T06:18:11;30.49;29.06;38.83;;
45964;Laerm;31671;48.092;11.842;2024-03-23T06:20:37;31.38;28.90;45.32;;
45964;Laerm;31671;48.092;11.842;2024-03-23T06:23:03;30.47;29.05;36.85;;
45964;Laerm;31671;48.092;11.842;2024-03-23T06:25:29;30.57;28.99;43.29;;
45964;Laerm;31671;48.092;11.842;2024-03-23T06:27:54;30.45;28.85;37.48;;
45964;Laerm;31671;48.092;11.842;2024-03-23T06:30:20;31.68;28.88;38.85;;
45964;Laerm;31671;48.092;11.842;2024-03-23T06:32:46;30.34;28.77;37.29;;
45964;Laerm;31671;48.092;11.842;2024-03-23T06:35:12;30.24;28.70;37.08;;
45964;Laerm;31671;48.092;11.842;2024-03-23T06:37:38;30.46;28.80;42.57;;
45964;Laerm;31671;48.092;11.842;2024-03-23T06:40:03;30.42;28.76;38.34;;
45964;Laerm;31671;48.092;11.842;2024-03-23T06:42:29;30.10;28.58;33.92;;
45964;Laerm;31671;48.092;11.842;2024-03-23T06:44:55;30.52;28.45;43.88;;
45964;Laerm;31671;48.092;11.842;2024-03-23T06:47:21;30.22;28.58;37.95;;
45964;Laerm;31671;48.092;11.842;2024-03-23T06:49:46;30.50;28.58;46.36;;
45964;Laerm;31671;48.092;11.842;2024-03-23T06:52:12;30.11;28.56;44.18;;
45964;Laerm;31671;48.092;11.842;2024-03-23T06:54:38;30.95;28.57;46.88;;
45964;Laerm;31671;48.092;11.842;2024-03-23T06:57:03;30.38;28.44;42.57;;
45964;Laerm;31671;48.092;11.842;2024-03-23T06:59:29;30.04;28.37;43.05;;
45964;Laerm;31671;48.092;11.842;2024-03-23T07:01:55;31.01;28.48;47.45;;
45964;Laerm;31671;48.092;11.842;2024-03-23T07:04:21;30.53;28.40;43.17;;
45964;Laerm;31671;48.092;11.842;2024-03-23T07:06:47;30.78;28.33;44.77;;
45964;Laerm;31671;48.092;11.842;2024-03-23T07:09:12;29.99;28.27;39.61;;
45964;Laerm;31671;48.092;11.842;2024-03-23T07:11:38;29.80;28.41;33.87;;
45964;Laerm;31671;48.092;11.842;2024-03-23T07:14:04;30.06;28.35;39.05;;
45964;Laerm;31671;48.092;11.842;2024-03-23T07:16:30;30.26;28.36;41.41;;
45964;Laerm;31671;48.092;11.842;2024-03-23T07:18:58;31.30;28.45;45.23;;
45964;Laerm;31671;48.092;11.842;2024-03-23T07:21:24;29.93;28.07;43.16;;
45964;Laerm;31671;48.092;11.842;2024-03-23T07:23:50;29.65;28.26;34.56;;
45964;Laerm;31671;48.092;11.842;2024-03-23T07:26:15;29.64;28.25;34.79;;
45964;Laerm;31671;48.092;11.842;2024-03-23T07:28:43;29.99;28.12;40.48;;
45964;Laerm;31671;48.092;11.842;2024-03-23T07:31:09;29.71;28.11;38.48;;
45964;Laerm;31671;48.092;11.842;2024-03-23T07:33:36;29.25;27.94;34.63;;
45964;Laerm;31671;48.092;11.842;2024-03-23T07:36:02;29.47;27.58;47.53;;
45964;Laerm;31671;48.092;11.842;2024-03-23T07:38:28;30.36;27.90;47.31;;
45964;Laerm;31671;48.092;11.842;2024-03-23T07:41:03;29.73;27.93;38.53;;
45964;Laerm;31671;48.092;11.842;2024-03-23T07:43:29;30.23;28.16;46.25;;
45964;Laerm;31671;48.092;11.842;2024-03-23T07:45:55;31.03;27.92;50.43;;
45964;Laerm;31671;48.092;11.842;2024-03-23T07:48:21;32.36;28.22;50.32;;
45964;Laerm;31671;48.092;11.842;2024-03-23T07:50:47;29.79;28.21;35.67;;
45964;Laerm;31671;48.092;11.842;2024-03-23T07:53:21;29.95;28.31;50.02;;
45964;Laerm;31671;48.092;11.842;2024-03-23T07:55:52;29.82;28.22;43.28;;
45964;Laerm;31671;48.092;11.842;2024-03-23T08:06:15;32.24;28.70;56.95;;
45964;Laerm;31671;48.092;11.842;2024-03-23T08:08:44;39.97;28.69;69.74;;
45964;Laerm;31671;48.092;11.842;2024-03-23T08:11:10;38.26;28.59;62.46;;
45964;Laerm;31671;48.092;11.842;2024-03-23T08:13:38;34.49;29.08;60.08;;
45964;Laerm;31671;48.092;11.842;2024-03-23T08:16:04;36.04;29.01;59.34;;
45964;Laerm;31671;48.092;11.842;2024-03-23T08:18:30;33.88;28.99;57.18;;
45964;Laerm;31671;48.092;11.842;2024-03-23T08:20:59;46.32;29.29;73.60;;
45964;Laerm;31671;48.092;11.842;2024-03-23T08:23:25;48.26;29.01;77.63;;
45964;Laerm;31671;48.092;11.842;2024-03-23T08:25:51;38.77;28.68;62.41;;
45964;Laerm;31671;48.092;11.842;2024-03-23T08:28:17;37.24;28.46;66.63;;
45964;Laerm;31671;48.092;11.842;2024-03-23T08:30:43;40.46;28.65;64.39;;
45964;Laerm;31671;48.092;11.842;2024-03-23T08:33:08;45.33;28.83;68.89;;
45964;Laerm;31671;48.092;11.842;2024-03-23T08:35:34;46.48;28.56;70.76;;
45964;Laerm;31671;48.092;11.842;2024-03-23T08:38:00;35.27;28.09;64.11;;
45964;Laerm;31671;48.092;11.842;2024-03-23T08:40:26;35.79;28.49;55.45;;
45964;Laerm;31671;48.092;11.842;2024-03-23T08:42:51;33.95;28.16;56.33;;
45964;Laerm;31671;48.092;11.842;2024-03-23T08:45:17;34.85;28.17;56.15;;
45964;Laerm;31671;48.092;11.842;2024-03-23T08:47:43;34.33;27.84;63.34;;
45964;Laerm;31671;48.092;11.842;2024-03-23T08:50:09;30.82;28.05;51.18;;
45964;Laerm;31671;48.092;11.842;2024-03-23T08:52:34;32.09;28.36;61.20;;
45964;Laerm;31671;48.092;11.842;2024-03-23T08:55:00;36.60;28.16;64.87;;
45964;Laerm;31671;48.092;11.842;2024-03-23T08:57:26;34.74;28.23;56.83;;
45964;Laerm;31671;48.092;11.842;2024-03-23T08:59:51;45.04;28.00;68.47;;
45964;Laerm;31671;48.092;11.842;2024-03-23T09:02:17;32.30;28.18;55.64;;
45964;Laerm;31671;48.092;11.842;2024-03-23T09:04:44;38.54;28.12;65.18;;
45964;Laerm;31671;48.092;11.842;2024-03-23T09:07:09;32.91;28.18;60.05;;
45964;Laerm;31671;48.092;11.842;2024-03-23T09:09:37;40.16;28.11;67.75;;
45964;Laerm;31671;48.092;11.842;2024-03-23T09:12:03;30.53;28.09;51.71;;
45964;Laerm;31671;48.092;11.842;2024-03-23T09:14:29;32.67;27.77;59.69;;
45964;Laerm;31671;48.092;11.842;2024-03-23T09:16:54;29.74;27.70;41.57;;
45964;Laerm;31671;48.092;11.842;2024-03-23T09:19:20;31.87;27.86;61.22;;
45964;Laerm;31671;48.092;11.842;2024-03-23T09:21:46;32.29;27.81;57.05;;
45964;Laerm;31671;48.092;11.842;2024-03-23T09:24:12;37.94;27.60;71.84;;
45964;Laerm;31671;48.092;11.842;2024-03-23T09:26:37;30.43;27.90;48.72;;
45964;Laerm;31671;48.092;11.842;2024-03-23T09:29:03;30.52;28.86;41.76;;
45964;Laerm;31671;48.092;11.842;2024-03-23T09:31:29;30.89;28.42;38.81;;
45964;Laerm;31671;48.092;11.842;2024-03-23T09:33:54;35.16;28.46;62.01;;
45964;Laerm;31671;48.092;11.842;2024-03-23T09:36:20;33.16;28.39;62.27;;
45964;Laerm;31671;48.092;11.842;2024-03-23T09:38:46;31.03;28.45;51.36;;
45964;Laerm;31671;48.092;11.842;2024-03-23T09:41:11;32.24;28.50;56.13;;
45964;Laerm;31671;48.092;11.842;2024-03-23T09:43:37;30.40;28.23;37.72;;
45964;Laerm;31671;48.092;11.842;2024-03-23T09:46:03;30.42;28.42;40.06;;
45964;Laerm;31671;48.092;11.842;2024-03-23T09:48:29;30.01;27.99;49.21;;
45964;Laerm;31671;48.092;11.842;2024-03-23T09:50:55;29.89;28.21;33.98;;
45964;Laerm;31671;48.092;11.842;2024-03-23T09:53:21;29.80;28.01;46.32;;
45964;Laerm;31671;48.092;11.842;2024-03-23T09:55:46;30.77;27.97;40.21;;
45964;Laerm;31671;48.092;11.842;2024-03-23T09:58:12;30.46;28.20;35.76;;
45964;Laerm;31671;48.092;11.842;2024-03-23T10:00:38;30.68;28.31;43.82;;
45964;Laerm;31671;48.092;11.842;2024-03-23T10:03:04;31.85;28.67;50.88;;
45964;Laerm;31671;48.092;11.842;2024-03-23T10:05:30;43.92;28.40;74.74;;
45964;Laerm;31671;48.092;11.842;2024-03-23T10:07:56;30.96;28.31;48.51;;
45964;Laerm;31671;48.092;11.842;2024-03-23T10:10:22;30.99;28.32;43.75;;
45964;Laerm;31671;48.092;11.842;2024-03-23T10:12:50;41.66;28.22;72.33;;
45964;Laerm;31671;48.092;11.842;2024-03-23T10:15:19;34.25;28.32;57.90;;
45964;Laerm;31671;48.092;11.842;2024-03-23T10:17:45;32.32;28.14;53.00;;
45964;Laerm;31671;48.092;11.842;2024-03-23T10:20:11;34.58;28.32;61.28;;
45964;Laerm;31671;48.092;11.842;2024-03-23T10:22:39;31.27;28.43;51.11;;
45964;Laerm;31671;48.092;11.842;2024-03-23T10:25:08;35.07;28.16;60.63;;
45964;Laerm;31671;48.092;11.842;2024-03-23T10:27:34;40.78;28.64;71.55;;
45964;Laerm;31671;48.092;11.842;2024-03-23T10:32:35;34.34;28.30;59.79;;
45964;Laerm;31671;48.092;11.842;2024-03-23T10:35:34;40.07;28.37;66.98;;
45964;Laerm;31671;48.092;11.842;2024-03-23T10:37:52;50.16;28.63;80.97;;
45964;Laerm;31671;48.092;11.842;2024-03-23T10:40:18;33.31;28.24;57.83;;
45964;Laerm;31671;48.092;11.842;2024-03-23T10:42:44;32.28;28.02;56.46;;
45964;Laerm;31671;48.092;11.842;2024-03-23T10:45:10;31.01;28.54;51.81;;
45964;Laerm;31671;48.092;11.842;2024-03-23T10:47:36;30.60;28.36;34.88;;
45964;Laerm;31671;48.092;11.842;2024-03-23T10:50:03;30.72;28.47;38.54;;
45964;Laerm;31671;48.092;11.842;2024-03-23T10:52:29;32.68;28.50;52.11;;
45964;Laerm;31671;48.092;11.842;2024-03-23T10:54:55;32.46;27.89;48.23;;
45964;Laerm;31671;48.092;11.842;2024-03-23T10:57:23;30.90;28.05;47.51;;
45964;Laerm;31671;48.092;11.842;2024-03-23T10:59:51;30.28;28.17;42.71;;
45964;Laerm;31671;48.092;11.842;2024-03-23T11:02:20;30.64;28.20;40.64;;
45964;Laerm;31671;48.092;11.842;2024-03-23T11:04:46;31.31;28.25;49.58;;
45964;Laerm;31671;48.092;11.842;2024-03-23T11:07:31;38.63;28.11;60.45;;
45964;Laerm;31671;48.092;11.842;2024-03-23T11:09:57;34.53;28.60;58.21;;
45964;Laerm;31671;48.092;11.842;2024-03-23T11:14:56;40.29;27.82;64.66;;
45964;Laerm;31671;48.092;11.842;2024-03-23T11:17:23;31.37;28.02;56.60;;
45964;Laerm;31671;48.092;11.842;2024-03-23T11:20:01;35.14;28.12;55.67;;
45964;Laerm;31671;48.092;11.842;2024-03-23T11:22:46;33.84;28.05;64.56;;
45964;Laerm;31671;48.092;11.842;2024-03-23T11:25:15;32.40;28.01;53.14;;
45964;Laerm;31671;48.092;11.842;2024-03-23T11:27:41;33.83;28.03;57.28;;
45964;Laerm;31671;48.092;11.842;2024-03-23T11:30:23;30.55;28.08;52.17;;
45964;Laerm;31671;48.092;11.842;2024-03-23T11:32:50;35.53;27.88;67.32;;
45964;Laerm;31671;48.092;11.842;2024-03-23T11:38:09;29.65;27.83;43.75;;
45964;Laerm;31671;48.092;11.842;2024-03-23T11:40:38;30.36;27.87;49.37;;
45964;Laerm;31671;48.092;11.842;2024-03-23T11:43:05;29.61;27.68;40.09;;
45964;Laerm;31671;48.092;11.842;2024-03-23T11:45:35;31.45;28.04;52.26;;
45964;Laerm;31671;48.092;11.842;2024-03-23T11:48:22;30.26;27.94;50.94;;
45964;Laerm;31671;48.092;11.842;2024-03-23T11:50:48;32.05;27.92;58.08;;
45964;Laerm;31671;48.092;11.842;2024-03-23T11:53:23;29.62;27.43;43.93;;
45964;Laerm;31671;48.092;11.842;2024-03-23T11:55:52;32.15;27.91;52.73;;
45964;Laerm;31671;48.092;11.842;2024-03-23T11:58:19;30.17;27.86;53.95;;
45964;Laerm;31671;48.092;11.842;2024-03-23T12:00:57;30.69;27.68;52.22;;
45964;Laerm;31671;48.092;11.842;2024-03-23T12:03:23;29.47;27.86;35.00;;
45964;Laerm;31671;48.092;11.842;2024-03-23T12:05:50;33.36;27.94;60.73;;
45964;Laerm;31671;48.092;11.842;2024-03-23T12:08:16;29.29;27.64;37.17;;
45964;Laerm;31671;48.092;11.842;2024-03-23T12:10:47;30.46;27.99;43.72;;
45964;Laerm;31671;48.092;11.842;2024-03-23T12:13:14;29.46;28.04;37.82;;
45964;Laerm;31671;48.092;11.842;2024-03-23T12:15:41;29.51;27.82;38.60;;
45964;Laerm;31671;48.092;11.842;2024-03-23T12:18:07;30.83;28.11;47.44;;
45964;Laerm;31671;48.092;11.842;2024-03-23T12:20:33;30.37;27.97;51.61;;
45964;Laerm;31671;48.092;11.842;2024-03-23T12:23:05;31.61;27.78;53.72;;
45964;Laerm;31671;48.092;11.842;2024-03-23T12:25:31;31.02;28.03;49.38;;
45964;Laerm;31671;48.092;11.842;2024-03-23T12:27:58;29.34;27.86;32.34;;
45964;Laerm;31671;48.092;11.842;2024-03-23T12:30:24;29.83;27.87;46.38;;
45964;Laerm;31671;48.092;11.842;2024-03-23T12:32:50;29.98;28.02;43.87;;
45964;Laerm;31671;48.092;11.842;2024-03-23T12:35:15;30.27;28.48;39.43;;
45964;Laerm;31671;48.092;11.842;2024-03-23T12:37:41;34.79;28.34;50.89;;
45964;Laerm;31671;48.092;11.842;2024-03-23T12:40:07;36.11;30.80;49.19;;
45964;Laerm;31671;48.092;11.842;2024-03-23T12:42:33;32.11;28.13;37.31;;
45964;Laerm;31671;48.092;11.842;2024-03-23T12:44:59;30.71;28.05;40.55;;
45964;Laerm;31671;48.092;11.842;2024-03-23T12:47:24;31.87;28.03;56.43;;
45964;Laerm;31671;48.092;11.842;2024-03-23T12:49:50;29.95;28.12;45.62;;
45964;Laerm;31671;48.092;11.842;2024-03-23T12:52:16;29.66;27.84;33.84;;
45964;Laerm;31671;48.092;11.842;2024-03-23T12:54:42;29.82;27.87;41.34;;
45964;Laerm;31671;48.092;11.842;2024-03-23T12:57:08;29.89;27.83;41.73;;
45964;Laerm;31671;48.092;11.842;2024-03-23T12:59:33;29.91;27.98;41.87;;
45964;Laerm;31671;48.092;11.842;2024-03-23T13:01:59;30.67;27.70;46.93;;
45964;Laerm;31671;48.092;11.842;2024-03-23T13:04:25;30.02;28.02;37.72;;
45964;Laerm;31671;48.092;11.842;2024-03-23T13:06:50;29.93;27.93;42.03;;
45964;Laerm;31671;48.092;11.842;2024-03-23T13:09:16;29.92;27.82;36.15;;
45964;Laerm;31671;48.092;11.842;2024-03-23T13:11:42;29.38;27.80;33.54;;
45964;Laerm;31671;48.092;11.842;2024-03-23T13:14:08;29.50;27.78;33.95;;
45964;Laerm;31671;48.092;11.842;2024-03-23T13:16:33;30.38;27.77;37.93;;
45964;Laerm;31671;48.092;11.842;2024-03-23T13:18:59;29.45;27.81;39.86;;
45964;Laerm;31671;48.092;11.842;2024-03-23T13:21:25;29.57;28.08;41.06;;
45964;Laerm;31671;48.092;11.842;2024-03-23T13:23:51;29.92;27.89;42.64;;
45964;Laerm;31671;48.092;11.842;2024-03-23T13:26:16;29.93;28.12;39.57;;
45964;Laerm;31671;48.092;11.842;2024-03-23T13:28:42;29.45;27.96;37.42;;
45964;Laerm;31671;48.092;11.842;2024-03-23T13:31:08;29.50;28.11;33.39;;
45964;Laerm;31671;48.092;11.842;2024-03-23T13:33:34;29.62;28.13;34.91;;
45964;Laerm;31671;48.092;11.842;2024-03-23T13:35:59;29.53;28.09;41.82;;
45964;Laerm;31671;48.092;11.842;2024-03-23T13:38:25;29.66;28.15;33.89;;
45964;Laerm;31671;48.092;11.842;2024-03-23T13:40:55;29.56;28.05;33.09;;
45964;Laerm;31671;48.092;11.842;2024-03-23T13:43:21;30.21;28.22;48.54;;
45964;Laerm;31671;48.092;11.842;2024-03-23T13:45:47;29.99;28.09;36.74;;
45964;Laerm;31671;48.092;11.842;2024-03-23T13:48:13;29.97;28.10;44.90;;
45964;Laerm;31671;48.092;11.842;2024-03-23T13:50:39;31.24;27.94;49.66;;
45964;Laerm;31671;48.092;11.842;2024-03-23T13:53:05;32.19;28.46;59.06;;
45964;Laerm;31671;48.092;11.842;2024-03-23T13:55:30;29.98;28.32;37.03;;
45964;Laerm;31671;48.092;11.842;2024-03-23T13:57:56;30.76;28.47;38.37;;
45964;Laerm;31671;48.092;11.842;2024-03-23T14:00:22;30.07;28.39;36.82;;
45964;Laerm;31671;48.092;11.842;2024-03-23T14:02:47;33.82;28.38;55.31;;
45964;Laerm;31671;48.092;11.842;2024-03-23T14:05:13;30.76;28.29;50.07;;
45964;Laerm;31671;48.092;11.842;2024-03-23T14:07:39;30.24;28.32;38.65;;
45964;Laerm;31671;48.092;11.842;2024-03-23T14:10:05;30.92;28.41;46.24;;
45964;Laerm;31671;48.092;11.842;2024-03-23T14:12:30;29.49;28.17;31.33;;
45964;Laerm;31671;48.092;11.842;2024-03-23T14:14:56;29.48;28.13;32.18;;
45964;Laerm;31671;48.092;11.842;2024-03-23T14:17:22;29.53;27.89;32.64;;
45964;Laerm;31671;48.092;11.842;2024-03-23T14:19:48;31.20;28.14;53.18;;
45964;Laerm;31671;48.092;11.842;2024-03-23T14:22:13;44.05;28.36;68.76;;
45964;Laerm;31671;48.092;11.842;2024-03-23T14:24:39;34.82;28.44;55.92;;
45964;Laerm;31671;48.092;11.842;2024-03-23T14:27:04;30.19;28.32;40.96;;
45964;Laerm;31671;48.092;11.842;2024-03-23T14:29:30;29.74;28.12;41.12;;
45964;Laerm;31671;48.092;11.842;2024-03-23T14:31:56;30.86;27.90;53.09;;
45964;Laerm;31671;48.092;11.842;2024-03-23T14:34:22;29.37;27.65;38.75;;
45964;Laerm;31671;48.092;11.842;2024-03-23T14:36:47;30.03;27.82;36.55;;